sensor_id;sensor_type;location;lat;lon;timestamp;P1;durP1;ratioP1;P2;durP2;ratioP2
46429;SDS011;32131;53.454;-6.180;2022-10-16T00:01:40;6.18;;;0.68;;
46429;SDS011;32131;53.454;-6.180;2022-10-16T00:04:10;1.55;;;0.43;;
46429;SDS011;32131;53.454;-6.180;2022-10-16T00:06:41;2.40;;;0.57;;
46429;SDS011;32131;53.454;-6.180;2022-10-16T00:09:09;4.05;;;0.80;;
46429;SDS011;32131;53.454;-6.180;2022-10-16T00:11:39;1.27;;;0.52;;
46429;SDS011;32131;53.454;-6.180;2022-10-16T00:14:09;2.15;;;0.70;;
46429;SDS011;32131;53.454;-6.180;2022-10-16T00:19:09;2.97;;;0.82;;
46429;SDS011;32131;53.454;-6.180;2022-10-16T00:21:38;6.35;;;0.30;;
46429;SDS011;32131;53.454;-6.180;2022-10-16T00:24:07;6.28;;;0.85;;
46429;SDS011;32131;53.454;-6.180;2022-10-16T00:26:37;3.15;;;0.38;;
46429;SDS011;32131;53.454;-6.180;2022-10-16T00:29:07;0.60;;;0.20;;
46429;SDS011;32131;53.454;-6.180;2022-10-16T00:31:35;4.15;;;0.43;;
46429;SDS011;32131;53.454;-6.180;2022-10-16T00:34:05;2.20;;;0.40;;
46429;SDS011;32131;53.454;-6.180;2022-10-16T00:36:34;2.00;;;0.77;;
46429;SDS011;32131;53.454;-6.180;2022-10-16T00:39:03;0.45;;;0.20;;
46429;SDS011;32131;53.454;-6.180;2022-10-16T00:41:33;1.23;;;0.40;;
46429;SDS011;32131;53.454;-6.180;2022-10-16T00:44:03;2.83;;;0.50;;
46429;SDS011;32131;53.454;-6.180;2022-10-16T00:46:51;3.22;;;0.50;;
46429;SDS011;32131;53.454;-6.180;2022-10-16T00:49:23;5.20;;;0.40;;
46429;SDS011;32131;53.454;-6.180;2022-10-16T00:51:51;3.42;;;0.40;;
46429;SDS011;32131;53.454;-6.180;2022-10-16T00:56:51;4.47;;;0.40;;
46429;SDS011;32131;53.454;-6.180;2022-10-16T00:59:22;1.05;;;0.50;;
46429;SDS011;32131;53.454;-6.180;2022-10-16T01:01:54;3.22;;;0.82;;
46429;SDS011;32131;53.454;-6.180;2022-10-16T01:04:25;2.88;;;0.30;;
46429;SDS011;32131;53.454;-6.180;2022-10-16T01:07:00;2.33;;;0.55;;
46429;SDS011;32131;53.454;-6.180;2022-10-16T01:09:37;4.78;;;0.88;;
46429;SDS011;32131;53.454;-6.180;2022-10-16T01:12:14;2.45;;;0.40;;
46429;SDS011;32131;53.454;-6.180;2022-10-16T01:14:48;3.97;;;0.80;;
46429;SDS011;32131;53.454;-6.180;2022-10-16T01:17:22;0.80;;;0.30;;
46429;SDS011;32131;53.454;-6.180;2022-10-16T01:20:07;2.40;;;0.68;;
46429;SDS011;32131;53.454;-6.180;2022-10-16T01:22:48;1.85;;;0.70;;
46429;SDS011;32131;53.454;-6.180;2022-10-16T01:25:30;1.52;;;0.40;;
46429;SDS011;32131;53.454;-6.180;2022-10-16T01:28:13;0.93;;;0.20;;
46429;SDS011;32131;53.454;-6.180;2022-10-16T01:30:45;2.10;;;0.50;;
46429;SDS011;32131;53.454;-6.180;2022-10-16T01:33:16;0.80;;;0.43;;
46429;SDS011;32131;53.454;-6.180;2022-10-16T01:35:51;2.45;;;0.75;;
46429;SDS011;32131;53.454;-6.180;2022-10-16T01:38:26;2.78;;;0.50;;
46429;SDS011;32131;53.454;-6.180;2022-10-16T01:41:02;5.00;;;0.60;;
46429;SDS011;32131;53.454;-6.180;2022-10-16T01:43:38;1.25;;;0.32;;
46429;SDS011;32131;53.454;-6.180;2022-10-16T01:46:09;1.58;;;0.50;;
46429;SDS011;32131;53.454;-6.180;2022-10-16T01:48:39;3.25;;;0.60;;
46429;SDS011;32131;53.454;-6.180;2022-10-16T01:51:08;1.48;;;0.22;;
46429;SDS011;32131;53.454;-6.180;2022-10-16T01:53:39;1.65;;;0.30;;
46429;SDS011;32131;53.454;-6.180;2022-10-16T01:56:10;2.00;;;0.32;;
46429;SDS011;32131;53.454;-6.180;2022-10-16T01:58:43;0.50;;;0.20;;
46429;SDS011;32131;53.454;-6.180;2022-10-16T02:01:19;1.25;;;0.32;;
46429;SDS011;32131;53.454;-6.180;2022-10-16T02:03:52;2.10;;;0.68;;
46429;SDS011;32131;53.454;-6.180;2022-10-16T02:06:26;3.70;;;0.20;;
46429;SDS011;32131;53.454;-6.180;2022-10-16T02:08:55;0.93;;;0.15;;
46429;SDS011;32131;53.454;-6.180;2022-10-16T02:11:26;4.38;;;0.40;;
46429;SDS011;32131;53.454;-6.180;2022-10-16T02:14:00;3.13;;;0.50;;
46429;SDS011;32131;53.454;-6.180;2022-10-16T02:16:35;6.03;;;0.82;;
46429;SDS011;32131;53.454;-6.180;2022-10-16T02:19:07;2.65;;;0.65;;
46429;SDS011;32131;53.454;-6.180;2022-10-16T02:21:38;4.15;;;0.38;;
46429;SDS011;32131;53.454;-6.180;2022-10-16T02:24:12;8.02;;;0.70;;
46429;SDS011;32131;53.454;-6.180;2022-10-16T02:26:47;5.57;;;0.70;;
46429;SDS011;32131;53.454;-6.180;2022-10-16T02:29:24;5.68;;;0.80;;
46429;SDS011;32131;53.454;-6.180;2022-10-16T02:31:55;3.20;;;0.80;;
46429;SDS011;32131;53.454;-6.180;2022-10-16T02:34:31;1.50;;;0.45;;
46429;SDS011;32131;53.454;-6.180;2022-10-16T02:39:33;1.27;;;0.40;;
46429;SDS011;32131;53.454;-6.180;2022-10-16T02:42:02;2.85;;;0.50;;
46429;SDS011;32131;53.454;-6.180;2022-10-16T02:44:32;5.90;;;0.75;;
46429;SDS011;32131;53.454;-6.180;2022-10-16T02:47:00;7.30;;;0.73;;
46429;SDS011;32131;53.454;-6.180;2022-10-16T02:49:29;7.75;;;0.93;;
46429;SDS011;32131;53.454;-6.180;2022-10-16T02:51:58;1.65;;;0.30;;
46429;SDS011;32131;53.454;-6.180;2022-10-16T02:54:26;3.75;;;0.73;;
46429;SDS011;32131;53.454;-6.180;2022-10-16T02:56:55;3.38;;;0.55;;
46429;SDS011;32131;53.454;-6.180;2022-10-16T02:59:26;3.03;;;0.60;;
46429;SDS011;32131;53.454;-6.180;2022-10-16T03:01:56;5.15;;;0.80;;
46429;SDS011;32131;53.454;-6.180;2022-10-16T03:04:24;1.45;;;0.20;;
46429;SDS011;32131;53.454;-6.180;2022-10-16T03:06:56;0.88;;;0.30;;
46429;SDS011;32131;53.454;-6.180;2022-10-16T03:09:25;1.73;;;0.35;;
46429;SDS011;32131;53.454;-6.180;2022-10-16T03:11:53;1.83;;;0.20;;
46429;SDS011;32131;53.454;-6.180;2022-10-16T03:14:27;2.70;;;0.50;;
46429;SDS011;32131;53.454;-6.180;2022-10-16T03:16:57;3.22;;;0.40;;
46429;SDS011;32131;53.454;-6.180;2022-10-16T03:19:25;0.90;;;0.25;;
46429;SDS011;32131;53.454;-6.180;2022-10-16T03:21:53;2.50;;;0.43;;
46429;SDS011;32131;53.454;-6.180;2022-10-16T03:24:22;2.33;;;0.50;;
46429;SDS011;32131;53.454;-6.180;2022-10-16T03:26:54;4.28;;;0.40;;
46429;SDS011;32131;53.454;-6.180;2022-10-16T03:29:28;3.42;;;0.38;;
46429;SDS011;32131;53.454;-6.180;2022-10-16T03:32:03;2.63;;;0.35;;
46429;SDS011;32131;53.454;-6.180;2022-10-16T03:34:34;0.08;;;0.00;;
46429;SDS011;32131;53.454;-6.180;2022-10-16T03:37:03;1.88;;;0.32;;
46429;SDS011;32131;53.454;-6.180;2022-10-16T03:39:31;3.30;;;0.43;;
46429;SDS011;32131;53.454;-6.180;2022-10-16T03:42:02;3.95;;;0.47;;
46429;SDS011;32131;53.454;-6.180;2022-10-16T03:44:31;2.78;;;0.50;;
46429;SDS011;32131;53.454;-6.180;2022-10-16T03:49:30;4.80;;;0.63;;
46429;SDS011;32131;53.454;-6.180;2022-10-16T03:51:59;0.93;;;0.25;;
46429;SDS011;32131;53.454;-6.180;2022-10-16T03:54:28;2.15;;;0.20;;
46429;SDS011;32131;53.454;-6.180;2022-10-16T03:56:57;2.25;;;0.20;;
46429;SDS011;32131;53.454;-6.180;2022-10-16T03:59:26;2.13;;;0.32;;
46429;SDS011;32131;53.454;-6.180;2022-10-16T04:01:54;1.88;;;0.17;;
46429;SDS011;32131;53.454;-6.180;2022-10-16T04:04:23;2.38;;;0.40;;
46429;SDS011;32131;53.454;-6.180;2022-10-16T04:06:53;1.35;;;0.20;;
46429;SDS011;32131;53.454;-6.180;2022-10-16T04:09:22;1.02;;;0.22;;
46429;SDS011;32131;53.454;-6.180;2022-10-16T04:11:50;4.68;;;0.30;;
46429;SDS011;32131;53.454;-6.180;2022-10-16T04:14:18;4.60;;;0.20;;
46429;SDS011;32131;53.454;-6.180;2022-10-16T04:16:46;5.07;;;0.68;;
46429;SDS011;32131;53.454;-6.180;2022-10-16T04:19:15;2.58;;;0.63;;
46429;SDS011;32131;53.454;-6.180;2022-10-16T04:21:44;3.10;;;0.82;;
46429;SDS011;32131;53.454;-6.180;2022-10-16T04:24:16;2.60;;;0.47;;
46429;SDS011;32131;53.454;-6.180;2022-10-16T04:26:44;1.67;;;0.60;;
46429;SDS011;32131;53.454;-6.180;2022-10-16T04:29:13;2.25;;;0.22;;
46429;SDS011;32131;53.454;-6.180;2022-10-16T04:31:45;3.30;;;0.30;;
46429;SDS011;32131;53.454;-6.180;2022-10-16T04:34:14;2.15;;;0.60;;
46429;SDS011;32131;53.454;-6.180;2022-10-16T04:39:16;4.60;;;0.45;;
46429;SDS011;32131;53.454;-6.180;2022-10-16T04:44:12;4.68;;;0.50;;
46429;SDS011;32131;53.454;-6.180;2022-10-16T04:46:42;4.97;;;0.50;;
46429;SDS011;32131;53.454;-6.180;2022-10-16T04:49:11;2.83;;;0.43;;
46429;SDS011;32131;53.454;-6.180;2022-10-16T04:51:40;1.42;;;0.20;;
46429;SDS011;32131;53.454;-6.180;2022-10-16T04:54:08;2.65;;;0.17;;
46429;SDS011;32131;53.454;-6.180;2022-10-16T04:56:38;7.03;;;0.73;;
46429;SDS011;32131;53.454;-6.180;2022-10-16T04:59:13;1.55;;;0.17;;
46429;SDS011;32131;53.454;-6.180;2022-10-16T05:04:11;2.08;;;0.20;;
46429;SDS011;32131;53.454;-6.180;2022-10-16T05:06:44;4.78;;;0.43;;
46429;SDS011;32131;53.454;-6.180;2022-10-16T05:09:13;3.33;;;0.17;;
46429;SDS011;32131;53.454;-6.180;2022-10-16T05:11:45;2.72;;;0.35;;
46429;SDS011;32131;53.454;-6.180;2022-10-16T05:14:13;1.77;;;0.20;;
46429;SDS011;32131;53.454;-6.180;2022-10-16T05:16:42;1.25;;;0.20;;
46429;SDS011;32131;53.454;-6.180;2022-10-16T05:19:10;1.50;;;0.25;;
46429;SDS011;32131;53.454;-6.180;2022-10-16T05:21:53;2.17;;;0.45;;
46429;SDS011;32131;53.454;-6.180;2022-10-16T05:24:21;1.30;;;0.32;;
46429;SDS011;32131;53.454;-6.180;2022-10-16T05:26:53;4.78;;;0.40;;
46429;SDS011;32131;53.454;-6.180;2022-10-16T05:29:22;3.22;;;0.43;;
46429;SDS011;32131;53.454;-6.180;2022-10-16T05:31:53;6.53;;;0.30;;
46429;SDS011;32131;53.454;-6.180;2022-10-16T05:34:21;2.40;;;0.32;;
46429;SDS011;32131;53.454;-6.180;2022-10-16T05:36:53;1.60;;;0.30;;
46429;SDS011;32131;53.454;-6.180;2022-10-16T05:39:22;2.10;;;0.32;;
46429;SDS011;32131;53.454;-6.180;2022-10-16T05:41:52;5.85;;;0.88;;
46429;SDS011;32131;53.454;-6.180;2022-10-16T05:44:20;3.15;;;0.30;;
46429;SDS011;32131;53.454;-6.180;2022-10-16T05:46:49;1.52;;;0.40;;
46429;SDS011;32131;53.454;-6.180;2022-10-16T05:49:19;3.58;;;0.38;;
46429;SDS011;32131;53.454;-6.180;2022-10-16T05:51:48;2.28;;;0.40;;
46429;SDS011;32131;53.454;-6.180;2022-10-16T05:54:17;2.28;;;0.25;;
46429;SDS011;32131;53.454;-6.180;2022-10-16T05:56:46;1.88;;;0.45;;
46429;SDS011;32131;53.454;-6.180;2022-10-16T05:59:16;5.97;;;1.02;;
46429;SDS011;32131;53.454;-6.180;2022-10-16T06:01:44;6.65;;;0.50;;
46429;SDS011;32131;53.454;-6.180;2022-10-16T06:04:13;2.30;;;0.30;;
46429;SDS011;32131;53.454;-6.180;2022-10-16T06:06:41;5.05;;;0.30;;
46429;SDS011;32131;53.454;-6.180;2022-10-16T06:09:12;1.27;;;0.20;;
46429;SDS011;32131;53.454;-6.180;2022-10-16T06:11:40;1.15;;;0.20;;
46429;SDS011;32131;53.454;-6.180;2022-10-16T06:14:08;3.08;;;0.50;;
46429;SDS011;32131;53.454;-6.180;2022-10-16T06:16:38;0.75;;;0.20;;
46429;SDS011;32131;53.454;-6.180;2022-10-16T06:19:07;4.05;;;0.38;;
46429;SDS011;32131;53.454;-6.180;2022-10-16T06:21:35;1.73;;;0.43;;
46429;SDS011;32131;53.454;-6.180;2022-10-16T06:24:07;2.75;;;0.30;;
46429;SDS011;32131;53.454;-6.180;2022-10-16T06:26:38;5.18;;;0.98;;
46429;SDS011;32131;53.454;-6.180;2022-10-16T06:29:07;5.20;;;0.80;;
46429;SDS011;32131;53.454;-6.180;2022-10-16T06:31:36;4.32;;;0.47;;
46429;SDS011;32131;53.454;-6.180;2022-10-16T06:34:07;11.10;;;0.95;;
46429;SDS011;32131;53.454;-6.180;2022-10-16T06:36:38;4.18;;;0.30;;
46429;SDS011;32131;53.454;-6.180;2022-10-16T06:39:07;6.20;;;0.70;;
46429;SDS011;32131;53.454;-6.180;2022-10-16T06:41:37;9.05;;;0.98;;
46429;SDS011;32131;53.454;-6.180;2022-10-16T06:44:06;1.67;;;0.65;;
46429;SDS011;32131;53.454;-6.180;2022-10-16T06:46:37;2.78;;;0.50;;
46429;SDS011;32131;53.454;-6.180;2022-10-16T06:49:07;2.42;;;0.60;;
46429;SDS011;32131;53.454;-6.180;2022-10-16T06:51:38;4.53;;;0.68;;
46429;SDS011;32131;53.454;-6.180;2022-10-16T06:54:09;3.47;;;0.65;;
46429;SDS011;32131;53.454;-6.180;2022-10-16T06:56:38;6.65;;;0.68;;
46429;SDS011;32131;53.454;-6.180;2022-10-16T06:59:07;5.18;;;0.60;;
46429;SDS011;32131;53.454;-6.180;2022-10-16T07:01:37;2.92;;;0.45;;
46429;SDS011;32131;53.454;-6.180;2022-10-16T07:04:07;3.05;;;0.35;;
46429;SDS011;32131;53.454;-6.180;2022-10-16T07:06:49;2.55;;;0.50;;
46429;SDS011;32131;53.454;-6.180;2022-10-16T07:11:52;5.65;;;1.35;;
46429;SDS011;32131;53.454;-6.180;2022-10-16T07:14:25;4.22;;;0.63;;
46429;SDS011;32131;53.454;-6.180;2022-10-16T07:16:54;1.58;;;0.55;;
46429;SDS011;32131;53.454;-6.180;2022-10-16T07:19:32;3.67;;;0.30;;
46429;SDS011;32131;53.454;-6.180;2022-10-16T07:22:03;10.68;;;0.77;;
46429;SDS011;32131;53.454;-6.180;2022-10-16T07:24:33;1.63;;;0.68;;
46429;SDS011;32131;53.454;-6.180;2022-10-16T07:27:03;6.15;;;1.70;;
46429;SDS011;32131;53.454;-6.180;2022-10-16T07:29:34;4.40;;;0.85;;
46429;SDS011;32131;53.454;-6.180;2022-10-16T07:32:05;3.60;;;1.48;;
46429;SDS011;32131;53.454;-6.180;2022-10-16T07:34:37;3.25;;;0.50;;
46429;SDS011;32131;53.454;-6.180;2022-10-16T07:37:08;4.63;;;0.63;;
46429;SDS011;32131;53.454;-6.180;2022-10-16T07:39:39;3.70;;;0.40;;
46429;SDS011;32131;53.454;-6.180;2022-10-16T07:42:24;5.35;;;0.88;;
46429;SDS011;32131;53.454;-6.180;2022-10-16T07:44:55;9.13;;;0.82;;
46429;SDS011;32131;53.454;-6.180;2022-10-16T07:47:24;5.95;;;0.65;;
46429;SDS011;32131;53.454;-6.180;2022-10-16T07:49:57;0.73;;;0.20;;
46429;SDS011;32131;53.454;-6.180;2022-10-16T07:52:28;6.32;;;0.70;;
46429;SDS011;32131;53.454;-6.180;2022-10-16T07:55:07;4.22;;;0.38;;
46429;SDS011;32131;53.454;-6.180;2022-10-16T07:57:37;7.28;;;0.70;;
46429;SDS011;32131;53.454;-6.180;2022-10-16T08:00:10;5.43;;;1.42;;
46429;SDS011;32131;53.454;-6.180;2022-10-16T08:02:42;3.10;;;0.82;;
46429;SDS011;32131;53.454;-6.180;2022-10-16T08:05:17;7.40;;;2.83;;
46429;SDS011;32131;53.454;-6.180;2022-10-16T08:07:52;20.08;;;7.53;;
46429;SDS011;32131;53.454;-6.180;2022-10-16T08:10:23;7.05;;;2.33;;
46429;SDS011;32131;53.454;-6.180;2022-10-16T08:12:58;11.43;;;4.55;;
46429;SDS011;32131;53.454;-6.180;2022-10-16T08:15:37;18.88;;;7.30;;
46429;SDS011;32131;53.454;-6.180;2022-10-16T08:18:06;9.00;;;2.13;;
46429;SDS011;32131;53.454;-6.180;2022-10-16T08:20:36;7.00;;;2.78;;
46429;SDS011;32131;53.454;-6.180;2022-10-16T08:23:06;14.88;;;4.53;;
46429;SDS011;32131;53.454;-6.180;2022-10-16T08:25:35;6.88;;;2.95;;
46429;SDS011;32131;53.454;-6.180;2022-10-16T08:28:12;5.55;;;3.15;;
46429;SDS011;32131;53.454;-6.180;2022-10-16T08:30:43;8.93;;;3.42;;
46429;SDS011;32131;53.454;-6.180;2022-10-16T08:33:13;6.47;;;4.20;;
46429;SDS011;32131;53.454;-6.180;2022-10-16T08:35:52;7.35;;;4.70;;
46429;SDS011;32131;53.454;-6.180;2022-10-16T08:38:31;4.95;;;1.88;;
46429;SDS011;32131;53.454;-6.180;2022-10-16T08:44:22;1.73;;;0.80;;
46429;SDS011;32131;53.454;-6.180;2022-10-16T08:51:23;3.25;;;0.93;;
46429;SDS011;32131;53.454;-6.180;2022-10-16T08:54:01;1.63;;;0.70;;
46429;SDS011;32131;53.454;-6.180;2022-10-16T08:56:34;3.63;;;0.45;;
46429;SDS011;32131;53.454;-6.180;2022-10-16T08:59:06;6.22;;;0.85;;
46429;SDS011;32131;53.454;-6.180;2022-10-16T09:01:41;4.65;;;0.65;;
46429;SDS011;32131;53.454;-6.180;2022-10-16T09:04:30;3.33;;;0.35;;
46429;SDS011;32131;53.454;-6.180;2022-10-16T09:07:38;3.53;;;0.50;;
46429;SDS011;32131;53.454;-6.180;2022-10-16T09:10:27;2.55;;;0.47;;
46429;SDS011;32131;53.454;-6.180;2022-10-16T09:13:10;1.38;;;0.50;;
46429;SDS011;32131;53.454;-6.180;2022-10-16T09:16:09;4.95;;;0.80;;
46429;SDS011;32131;53.454;-6.180;2022-10-16T09:19:13;2.90;;;0.63;;
46429;SDS011;32131;53.454;-6.180;2022-10-16T09:21:52;4.95;;;0.68;;
46429;SDS011;32131;53.454;-6.180;2022-10-16T09:24:45;2.63;;;0.50;;
46429;SDS011;32131;53.454;-6.180;2022-10-16T09:29:43;2.58;;;0.50;;
46429;SDS011;32131;53.454;-6.180;2022-10-16T09:32:29;8.38;;;0.80;;
46429;SDS011;32131;53.454;-6.180;2022-10-16T09:35:19;2.42;;;0.88;;
46429;SDS011;32131;53.454;-6.180;2022-10-16T10:19:54;4.40;;;0.82;;
46429;SDS011;32131;53.454;-6.180;2022-10-16T10:22:30;4.65;;;0.90;;
46429;SDS011;32131;53.454;-6.180;2022-10-16T10:28:07;6.60;;;1.48;;
46429;SDS011;32131;53.454;-6.180;2022-10-16T10:30:48;2.67;;;1.13;;
46429;SDS011;32131;53.454;-6.180;2022-10-16T10:33:28;4.70;;;0.55;;
46429;SDS011;32131;53.454;-6.180;2022-10-16T10:36:08;5.13;;;0.93;;
46429;SDS011;32131;53.454;-6.180;2022-10-16T10:38:46;7.03;;;0.63;;
46429;SDS011;32131;53.454;-6.180;2022-10-16T10:44:27;6.60;;;0.77;;
46429;SDS011;32131;53.454;-6.180;2022-10-16T10:47:06;1.42;;;0.45;;
46429;SDS011;32131;53.454;-6.180;2022-10-16T10:49:50;4.22;;;0.95;;
46429;SDS011;32131;53.454;-6.180;2022-10-16T10:52:31;8.75;;;0.95;;
46429;SDS011;32131;53.454;-6.180;2022-10-16T10:55:09;4.47;;;0.73;;
46429;SDS011;32131;53.454;-6.180;2022-10-16T10:57:48;8.18;;;0.57;;
46429;SDS011;32131;53.454;-6.180;2022-10-16T11:00:39;3.15;;;0.50;;
46429;SDS011;32131;53.454;-6.180;2022-10-16T11:03:25;5.25;;;1.02;;
46429;SDS011;32131;53.454;-6.180;2022-10-16T11:06:04;2.67;;;0.68;;
46429;SDS011;32131;53.454;-6.180;2022-10-16T11:11:43;4.50;;;0.75;;
46429;SDS011;32131;53.454;-6.180;2022-10-16T11:14:17;3.72;;;0.82;;
46429;SDS011;32131;53.454;-6.180;2022-10-16T11:17:38;4.55;;;0.77;;
46429;SDS011;32131;53.454;-6.180;2022-10-16T11:20:18;7.80;;;0.88;;
46429;SDS011;32131;53.454;-6.180;2022-10-16T11:22:54;5.38;;;0.90;;
46429;SDS011;32131;53.454;-6.180;2022-10-16T11:25:27;3.97;;;0.65;;
46429;SDS011;32131;53.454;-6.180;2022-10-16T11:28:00;4.68;;;1.10;;
46429;SDS011;32131;53.454;-6.180;2022-10-16T11:31:00;0.73;;;0.50;;
46429;SDS011;32131;53.454;-6.180;2022-10-16T11:55:14;3.25;;;0.93;;
46429;SDS011;32131;53.454;-6.180;2022-10-16T11:58:09;2.92;;;0.95;;
46429;SDS011;32131;53.454;-6.180;2022-10-16T12:00:51;2.40;;;0.50;;
46429;SDS011;32131;53.454;-6.180;2022-10-16T12:06:02;4.57;;;0.65;;
46429;SDS011;32131;53.454;-6.180;2022-10-16T12:08:44;6.50;;;1.10;;
46429;SDS011;32131;53.454;-6.180;2022-10-16T12:11:33;4.53;;;1.15;;
46429;SDS011;32131;53.454;-6.180;2022-10-16T12:16:03;4.78;;;1.08;;
46429;SDS011;32131;53.454;-6.180;2022-10-16T12:18:25;2.42;;;0.38;;
46429;SDS011;32131;53.454;-6.180;2022-10-16T12:20:58;8.00;;;0.77;;
46429;SDS011;32131;53.454;-6.180;2022-10-16T12:29:53;7.70;;;0.80;;
46429;SDS011;32131;53.454;-6.180;2022-10-16T12:32:39;3.72;;;0.57;;
46429;SDS011;32131;53.454;-6.180;2022-10-16T12:35:19;4.53;;;0.82;;
46429;SDS011;32131;53.454;-6.180;2022-10-16T12:39:44;3.05;;;0.70;;
46429;SDS011;32131;53.454;-6.180;2022-10-16T12:42:19;2.55;;;0.45;;
46429;SDS011;32131;53.454;-6.180;2022-10-16T12:48:23;4.70;;;0.90;;
46429;SDS011;32131;53.454;-6.180;2022-10-16T12:58:14;6.95;;;1.02;;
46429;SDS011;32131;53.454;-6.180;2022-10-16T13:07:59;3.45;;;1.08;;
46429;SDS011;32131;53.454;-6.180;2022-10-16T13:14:13;4.68;;;0.95;;
46429;SDS011;32131;53.454;-6.180;2022-10-16T13:17:39;6.90;;;0.75;;
46429;SDS011;32131;53.454;-6.180;2022-10-16T13:20:51;4.03;;;0.95;;
46429;SDS011;32131;53.454;-6.180;2022-10-16T13:23:41;8.45;;;1.15;;
46429;SDS011;32131;53.454;-6.180;2022-10-16T13:29:49;9.20;;;1.27;;
46429;SDS011;32131;53.454;-6.180;2022-10-16T13:32:32;7.03;;;1.90;;
46429;SDS011;32131;53.454;-6.180;2022-10-16T13:35:20;6.18;;;1.23;;
46429;SDS011;32131;53.454;-6.180;2022-10-16T13:38:06;2.60;;;0.75;;
46429;SDS011;32131;53.454;-6.180;2022-10-16T13:41:13;5.07;;;0.90;;
46429;SDS011;32131;53.454;-6.180;2022-10-16T13:43:59;4.75;;;0.65;;
46429;SDS011;32131;53.454;-6.180;2022-10-16T14:16:33;6.57;;;1.30;;
46429;SDS011;32131;53.454;-6.180;2022-10-16T14:27:20;4.35;;;1.35;;
46429;SDS011;32131;53.454;-6.180;2022-10-16T14:34:29;4.00;;;1.27;;
46429;SDS011;32131;53.454;-6.180;2022-10-16T14:37:24;2.28;;;0.63;;
46429;SDS011;32131;53.454;-6.180;2022-10-16T14:41:44;5.55;;;1.23;;
46429;SDS011;32131;53.454;-6.180;2022-10-16T14:44:10;6.15;;;0.90;;
46429;SDS011;32131;53.454;-6.180;2022-10-16T14:47:07;5.28;;;1.73;;
46429;SDS011;32131;53.454;-6.180;2022-10-16T14:50:16;3.95;;;1.33;;
46429;SDS011;32131;53.454;-6.180;2022-10-16T14:56:16;6.38;;;1.17;;
46429;SDS011;32131;53.454;-6.180;2022-10-16T14:59:08;3.67;;;1.20;;
46429;SDS011;32131;53.454;-6.180;2022-10-16T15:01:42;5.43;;;1.35;;
46429;SDS011;32131;53.454;-6.180;2022-10-16T15:05:07;5.47;;;1.80;;
46429;SDS011;32131;53.454;-6.180;2022-10-16T15:12:16;6.25;;;2.45;;
46429;SDS011;32131;53.454;-6.180;2022-10-16T15:15:01;8.18;;;3.78;;
46429;SDS011;32131;53.454;-6.180;2022-10-16T15:20:18;11.43;;;2.33;;
46429;SDS011;32131;53.454;-6.180;2022-10-16T15:21:44;9.73;;;3.97;;
46429;SDS011;32131;53.454;-6.180;2022-10-16T15:24:19;6.18;;;2.03;;
46429;SDS011;32131;53.454;-6.180;2022-10-16T15:26:59;15.10;;;2.83;;
46429;SDS011;32131;53.454;-6.180;2022-10-16T15:29:59;8.18;;;1.63;;
46429;SDS011;32131;53.454;-6.180;2022-10-16T15:33:08;14.52;;;3.08;;
46429;SDS011;32131;53.454;-6.180;2022-10-16T15:35:35;8.38;;;1.30;;
46429;SDS011;32131;53.454;-6.180;2022-10-16T15:38:14;9.88;;;2.58;;
46429;SDS011;32131;53.454;-6.180;2022-10-16T15:40:57;8.20;;;1.23;;
46429;SDS011;32131;53.454;-6.180;2022-10-16T15:43:34;5.07;;;2.10;;
46429;SDS011;32131;53.454;-6.180;2022-10-16T15:46:28;5.60;;;1.40;;
46429;SDS011;32131;53.454;-6.180;2022-10-16T15:49:16;10.57;;;2.05;;
46429;SDS011;32131;53.454;-6.180;2022-10-16T15:52:12;9.80;;;1.90;;
46429;SDS011;32131;53.454;-6.180;2022-10-16T15:54:51;12.10;;;1.45;;
46429;SDS011;32131;53.454;-6.180;2022-10-16T16:00:18;6.30;;;1.35;;
46429;SDS011;32131;53.454;-6.180;2022-10-16T16:02:53;5.35;;;1.73;;
46429;SDS011;32131;53.454;-6.180;2022-10-16T16:08:27;7.03;;;1.33;;
46429;SDS011;32131;53.454;-6.180;2022-10-16T16:10:59;11.43;;;1.70;;
46429;SDS011;32131;53.454;-6.180;2022-10-16T16:13:51;9.73;;;1.20;;
46429;SDS011;32131;53.454;-6.180;2022-10-16T16:16:29;4.18;;;1.35;;
46429;SDS011;32131;53.454;-6.180;2022-10-16T16:19:09;4.82;;;1.77;;
46429;SDS011;32131;53.454;-6.180;2022-10-16T16:21:43;7.07;;;1.77;;
46429;SDS011;32131;53.454;-6.180;2022-10-16T16:24:18;9.00;;;1.20;;
46429;SDS011;32131;53.454;-6.180;2022-10-16T16:26:47;7.55;;;1.50;;
46429;SDS011;32131;53.454;-6.180;2022-10-16T16:29:19;7.10;;;1.17;;
46429;SDS011;32131;53.454;-6.180;2022-10-16T16:31:53;5.95;;;1.23;;
46429;SDS011;32131;53.454;-6.180;2022-10-16T16:34:27;11.07;;;2.28;;
46429;SDS011;32131;53.454;-6.180;2022-10-16T16:36:58;10.23;;;2.10;;
46429;SDS011;32131;53.454;-6.180;2022-10-16T16:39:27;6.10;;;1.33;;
46429;SDS011;32131;53.454;-6.180;2022-10-16T17:02:18;13.07;;;2.10;;
46429;SDS011;32131;53.454;-6.180;2022-10-16T17:04:56;11.88;;;1.90;;
46429;SDS011;32131;53.454;-6.180;2022-10-16T17:07:31;18.83;;;2.70;;
46429;SDS011;32131;53.454;-6.180;2022-10-16T17:10:05;14.18;;;2.42;;
46429;SDS011;32131;53.454;-6.180;2022-10-16T17:12:36;6.00;;;1.70;;
46429;SDS011;32131;53.454;-6.180;2022-10-16T17:15:24;12.00;;;2.47;;
46429;SDS011;32131;53.454;-6.180;2022-10-16T17:22:49;9.45;;;1.38;;
46429;SDS011;32131;53.454;-6.180;2022-10-16T17:25:36;10.13;;;2.28;;
46429;SDS011;32131;53.454;-6.180;2022-10-16T17:28:10;12.60;;;1.73;;
46429;SDS011;32131;53.454;-6.180;2022-10-16T17:31:54;8.68;;;1.48;;
46429;SDS011;32131;53.454;-6.180;2022-10-16T17:34:32;13.43;;;2.08;;
46429;SDS011;32131;53.454;-6.180;2022-10-16T17:37:26;13.82;;;1.73;;
46429;SDS011;32131;53.454;-6.180;2022-10-16T17:40:09;10.23;;;2.63;;
46429;SDS011;32131;53.454;-6.180;2022-10-16T17:42:40;10.52;;;2.58;;
46429;SDS011;32131;53.454;-6.180;2022-10-16T17:45:20;6.53;;;1.48;;
46429;SDS011;32131;53.454;-6.180;2022-10-16T17:47:53;23.90;;;2.53;;
46429;SDS011;32131;53.454;-6.180;2022-10-16T17:50:57;15.73;;;6.65;;
46429;SDS011;32131;53.454;-6.180;2022-10-16T17:53:36;6.80;;;1.77;;
46429;SDS011;32131;53.454;-6.180;2022-10-16T17:56:25;15.57;;;2.45;;
46429;SDS011;32131;53.454;-6.180;2022-10-16T17:59:16;10.17;;;2.43;;
46429;SDS011;32131;53.454;-6.180;2022-10-16T18:02:09;9.00;;;2.70;;
46429;SDS011;32131;53.454;-6.180;2022-10-16T18:06:08;6.35;;;1.80;;
46429;SDS011;32131;53.454;-6.180;2022-10-16T18:08:41;14.10;;;1.98;;
46429;SDS011;32131;53.454;-6.180;2022-10-16T18:14:10;16.53;;;1.90;;
46429;SDS011;32131;53.454;-6.180;2022-10-16T18:16:53;10.55;;;1.60;;
46429;SDS011;32131;53.454;-6.180;2022-10-16T18:19:26;14.00;;;2.78;;
46429;SDS011;32131;53.454;-6.180;2022-10-16T18:24:55;15.98;;;2.67;;
46429;SDS011;32131;53.454;-6.180;2022-10-16T18:27:56;21.58;;;3.15;;
46429;SDS011;32131;53.454;-6.180;2022-10-16T18:34:26;22.40;;;3.33;;
46429;SDS011;32131;53.454;-6.180;2022-10-16T18:41:16;18.83;;;2.72;;
46429;SDS011;32131;53.454;-6.180;2022-10-16T19:04:32;19.70;;;2.90;;
46429;SDS011;32131;53.454;-6.180;2022-10-16T19:07:07;24.65;;;3.78;;
46429;SDS011;32131;53.454;-6.180;2022-10-16T19:09:46;11.32;;;2.95;;
46429;SDS011;32131;53.454;-6.180;2022-10-16T19:12:24;16.60;;;3.72;;
46429;SDS011;32131;53.454;-6.180;2022-10-16T19:14:57;22.00;;;4.35;;
46429;SDS011;32131;53.454;-6.180;2022-10-16T19:21:03;18.33;;;2.70;;
46429;SDS011;32131;53.454;-6.180;2022-10-16T19:23:45;19.88;;;3.08;;
46429;SDS011;32131;53.454;-6.180;2022-10-16T19:26:24;18.77;;;3.22;;
46429;SDS011;32131;53.454;-6.180;2022-10-16T19:29:08;26.55;;;2.83;;
46429;SDS011;32131;53.454;-6.180;2022-10-16T19:31:48;22.23;;;3.08;;
46429;SDS011;32131;53.454;-6.180;2022-10-16T19:34:17;22.58;;;3.05;;
46429;SDS011;32131;53.454;-6.180;2022-10-16T19:36:51;22.73;;;4.28;;
46429;SDS011;32131;53.454;-6.180;2022-10-16T19:39:39;21.23;;;3.22;;
46429;SDS011;32131;53.454;-6.180;2022-10-16T19:42:12;25.17;;;3.53;;
46429;SDS011;32131;53.454;-6.180;2022-10-16T19:44:43;19.40;;;2.72;;
46429;SDS011;32131;53.454;-6.180;2022-10-16T19:47:22;12.55;;;2.80;;
46429;SDS011;32131;53.454;-6.180;2022-10-16T19:49:56;25.95;;;3.40;;